Time;durP1;ratioP1;P1;durP2;ratioP2;P2;SDS_P1;SDS_P2;PMS_P1;PMS_P2;Temp;Humidity;BMP_temperature;BMP_pressure;BME280_temperature;BME280_humidity;BME280_pressure;Samples;Min_cycle;Max_cycle;Signal;HPM_P1;HPM_P2
2022/08/02 00:00:13;;;;;;;;;;;;;;;16.35;76.95;95157.31;5094323;28;961;-48
2022/08/02 00:02:43;;;;;;;;;;;;;;;16.29;76.10;95153.53;5094091;28;1033;-47
2022/08/02 00:05:09;;;;;;;;;;;;;;;16.39;75.42;95151.34;5094065;28;1037;-47
2022/08/02 00:07:35;;;;;;;;;;;;;;;16.46;76.44;95151.38;5094141;28;1987;-47
2022/08/02 00:10:02;;;;;;;;;;;;;;;16.36;77.08;95148.22;5094294;28;1063;-48
2022/08/02 00:12:29;;;;;;;;;;;;;;;16.13;77.45;95154.69;5093907;28;1025;-47
2022/08/02 00:14:54;;;;;;;;;;;;;;;16.02;77.76;95147.13;5094131;28;970;-48
2022/08/02 00:17:20;;;;;;;;;;;;;;;15.91;77.43;95147.66;5093771;28;1033;-48
2022/08/02 00:19:47;;;;;;;;;;;;;;;15.90;78.28;95141.44;5093928;28;1000;-47
2022/08/02 00:22:13;;;;;;;;;;;;;;;16.02;77.95;95154.38;5093930;28;974;-47
2022/08/02 00:24:39;;;;;;;;;;;;;;;16.07;77.78;95144.69;5094122;28;1048;-47
2022/08/02 00:27:07;;;;;;;;;;;;;;;15.98;77.47;95148.53;5093696;28;1906;-47
2022/08/02 00:29:33;;;;;;;;;;;;;;;15.85;78.81;95148.44;5093853;28;1965;-47
2022/08/02 00:31:59;;;;;;;;;;;;;;;15.96;78.02;95154.13;5093637;28;1013;-47
2022/08/02 00:34:25;;;;;;;;;;;;;;;16.19;76.02;95143.09;5093153;28;1024;-47
2022/08/02 00:36:51;;;;;;;;;;;;;;;16.16;76.56;95156.13;5093750;28;1034;-47
2022/08/02 00:39:18;;;;;;;;;;;;;;;15.99;77.71;95156.44;5093614;28;1862;-47
2022/08/02 00:41:47;;;;;;;;;;;;;;;15.98;77.43;95153.94;5093501;28;1860;-47
2022/08/02 00:44:16;;;;;;;;;;;;;;;16.00;77.85;95151.88;5107136;28;1154;-47
2022/08/02 00:46:42;;;;;;;;;;;;;;;15.89;77.94;95147.84;5113648;28;1905;-47
2022/08/02 00:49:09;;;;;;;;;;;;;;;15.87;78.52;95151.75;5113792;28;1044;-47
2022/08/02 00:51:35;;;;;;;;;;;;;;;15.84;78.23;95152.13;5113630;28;1349;-47
2022/08/02 00:54:01;;;;;;;;;;;;;;;15.81;78.24;95147.97;5114231;28;977;-47
2022/08/02 00:56:27;;;;;;;;;;;;;;;15.75;78.77;95140.66;5113943;28;988;-47
2022/08/02 00:58:53;;;;;;;;;;;;;;;15.64;79.45;95144.69;5113634;28;1032;-47
2022/08/02 01:01:19;;;;;;;;;;;;;;;15.49;79.55;95141.22;5113698;28;1127;-47
2022/08/02 01:03:45;;;;;;;;;;;;;;;15.39;79.96;95131.56;5113582;28;981;-47
2022/08/02 01:06:11;;;;;;;;;;;;;;;15.38;79.88;95134.47;5113886;28;965;-47
2022/08/02 01:08:38;;;;;;;;;;;;;;;15.53;79.29;95143.31;5113640;28;1914;-47
2022/08/02 01:11:04;;;;;;;;;;;;;;;15.64;78.62;95144.69;5113726;28;1011;-48
2022/08/02 01:13:30;;;;;;;;;;;;;;;15.56;79.41;95142.94;5113594;28;1048;-47
2022/08/02 01:16:03;;;;;;;;;;;;;;;15.48;79.83;95139.53;5113699;28;1017;-47
2022/08/02 01:18:31;;;;;;;;;;;;;;;15.41;79.78;95147.56;5113452;28;1032;-47
2022/08/02 01:21:09;;;;;;;;;;;;;;;15.32;79.90;95149.53;5113597;28;1075;-47
2022/08/02 01:23:50;;;;;;;;;;;;;;;15.22;80.38;95141.75;5113569;28;1067;-47
2022/08/02 01:26:16;;;;;;;;;;;;;;;15.15;80.23;95132.75;5113612;28;1131;-47
2022/08/02 01:28:48;;;;;;;;;;;;;;;15.12;80.70;95135.84;5113273;28;1909;-47
2022/08/02 01:31:18;;;;;;;;;;;;;;;15.16;81.01;95141.69;5113467;28;2008;-47
2022/08/02 01:33:59;;;;;;;;;;;;;;;15.32;79.42;95140.63;5113506;28;992;-47
2022/08/02 01:36:26;;;;;;;;;;;;;;;15.12;80.45;95146.63;5113459;28;964;-47
2022/08/02 01:38:53;;;;;;;;;;;;;;;14.95;80.35;95147.84;5113230;28;1084;-47
2022/08/02 01:41:22;;;;;;;;;;;;;;;14.90;81.39;95144.91;5113254;28;1003;-47
2022/08/02 01:43:50;;;;;;;;;;;;;;;14.93;81.42;95134.59;5102842;28;1153;-47
2022/08/02 01:46:17;;;;;;;;;;;;;;;15.13;80.44;95144.75;5094771;28;1036;-47
2022/08/02 01:48:44;;;;;;;;;;;;;;;15.05;80.80;95137.63;5096591;28;1918;-47
2022/08/02 01:51:11;;;;;;;;;;;;;;;14.95;81.24;95142.47;5096702;28;1081;-48
2022/08/02 01:53:39;;;;;;;;;;;;;;;14.97;81.49;95135.88;5096589;28;1024;-47
2022/08/02 01:56:06;;;;;;;;;;;;;;;14.93;81.90;95141.81;5096848;28;969;-47
2022/08/02 01:58:33;;;;;;;;;;;;;;;14.82;81.22;95140.47;5096513;28;1045;-47
2022/08/02 02:01:00;;;;;;;;;;;;;;;14.82;81.40;95129.69;5096599;28;1068;-48
2022/08/02 02:03:28;;;;;;;;;;;;;;;15.04;80.19;95138.63;5096421;28;1018;-47
2022/08/02 02:05:55;;;;;;;;;;;;;;;14.83;81.02;95134.03;5096548;28;1063;-47
2022/08/02 02:08:40;;;;;;;;;;;;;;;14.76;80.75;95139.34;5095970;28;1934;-47
2022/08/02 02:11:06;;;;;;;;;;;;;;;14.93;80.20;95139.97;5096602;28;1014;-48
2022/08/02 02:13:33;;;;;;;;;;;;;;;14.84;80.87;95139.22;5096358;28;1001;-47
2022/08/02 02:16:02;;;;;;;;;;;;;;;14.71;81.93;95131.00;5096464;28;974;-47
2022/08/02 02:18:28;;;;;;;;;;;;;;;14.61;82.05;95138.53;5096197;28;1012;-48
2022/08/02 02:20:55;;;;;;;;;;;;;;;14.52;82.15;95132.38;5096206;28;1089;-47
2022/08/02 02:23:21;;;;;;;;;;;;;;;14.40;82.63;95136.56;5095979;28;1876;-47
2022/08/02 02:25:48;;;;;;;;;;;;;;;14.41;82.36;95138.22;5096325;28;970;-47
2022/08/02 02:28:13;;;;;;;;;;;;;;;14.50;82.41;95136.28;5095944;28;1910;-47
2022/08/02 02:30:42;;;;;;;;;;;;;;;14.50;82.38;95142.47;5096214;28;1029;-47
2022/08/02 02:33:09;;;;;;;;;;;;;;;14.50;81.96;95141.66;5095828;28;1021;-48
2022/08/02 02:35:36;;;;;;;;;;;;;;;14.70;81.27;95142.78;5095875;28;1080;-47
2022/08/02 02:38:05;;;;;;;;;;;;;;;14.80;80.85;95137.13;5096030;28;1025;-47
2022/08/02 02:40:31;;;;;;;;;;;;;;;14.79;81.49;95138.13;5095789;28;1030;-47
2022/08/02 02:42:59;;;;;;;;;;;;;;;14.56;82.10;95133.66;5098901;28;1210;-47
2022/08/02 02:45:26;;;;;;;;;;;;;;;14.31;82.50;95133.09;5115984;28;1049;-47
2022/08/02 02:47:54;;;;;;;;;;;;;;;14.18;83.17;95128.34;5116104;28;1910;-47
2022/08/02 02:50:21;;;;;;;;;;;;;;;14.14;83.69;95129.75;5115773;28;996;-47
2022/08/02 02:52:47;;;;;;;;;;;;;;;14.30;83.59;95125.22;5115986;28;1261;-48
2022/08/02 02:55:14;;;;;;;;;;;;;;;14.51;83.12;95119.91;5115878;28;1039;-47
2022/08/02 02:57:40;;;;;;;;;;;;;;;14.58;81.99;95123.56;5115604;28;1048;-47
2022/08/02 03:00:08;;;;;;;;;;;;;;;14.65;81.91;95123.66;5115609;28;1016;-47
2022/08/02 03:02:36;;;;;;;;;;;;;;;14.56;82.33;95122.06;5115841;28;1023;-47
2022/08/02 03:05:02;;;;;;;;;;;;;;;14.41;82.77;95120.19;5115770;28;1028;-48
2022/08/02 03:07:28;;;;;;;;;;;;;;;14.12;82.86;95118.34;5115877;28;1925;-48
2022/08/02 03:09:54;;;;;;;;;;;;;;;13.95;83.58;95119.53;5115710;28;1060;-47
2022/08/02 03:12:24;;;;;;;;;;;;;;;13.99;83.66;95118.97;5115698;28;1062;-47
2022/08/02 03:14:50;;;;;;;;;;;;;;;14.18;83.86;95127.53;5115571;28;1033;-47
2022/08/02 03:17:16;;;;;;;;;;;;;;;14.33;82.34;95124.84;5115354;28;1091;-47
2022/08/02 03:19:43;;;;;;;;;;;;;;;14.46;82.18;95116.97;5097523;28;1026;-47
2022/08/02 03:22:10;;;;;;;;;;;;;;;14.43;82.81;95115.47;5115366;28;1025;-48
2022/08/02 03:24:36;;;;;;;;;;;;;;;14.17;82.63;95124.00;5115418;28;1029;-48
2022/08/02 03:27:02;;;;;;;;;;;;;;;13.97;83.29;95125.56;5115342;28;2016;-47
2022/08/02 03:29:28;;;;;;;;;;;;;;;13.92;84.13;95122.56;5115215;28;962;-47
2022/08/02 03:31:55;;;;;;;;;;;;;;;13.87;84.18;95120.44;5115243;28;1016;-47
2022/08/02 03:34:21;;;;;;;;;;;;;;;14.05;83.98;95118.22;5115220;28;948;-47
2022/08/02 03:36:49;;;;;;;;;;;;;;;14.15;83.78;95123.38;5115351;28;923;-47
2022/08/02 03:39:16;;;;;;;;;;;;;;;14.12;83.93;95123.72;5114797;28;1016;-47
2022/08/02 03:41:42;;;;;;;;;;;;;;;14.01;83.06;95127.69;5115008;28;1096;-47
2022/08/02 03:44:09;;;;;;;;;;;;;;;14.00;83.83;95123.34;5101743;28;1161;-47
2022/08/02 03:46:38;;;;;;;;;;;;;;;14.17;83.25;95129.41;5094433;28;1057;-47
2022/08/02 03:49:06;;;;;;;;;;;;;;;14.19;83.33;95127.34;5094363;28;1906;-48
2022/08/02 03:51:32;;;;;;;;;;;;;;;14.34;83.38;95139.97;5094229;28;1108;-47
2022/08/02 03:53:59;;;;;;;;;;;;;;;14.48;82.32;95132.94;5094625;28;1004;-47
2022/08/02 03:56:25;;;;;;;;;;;;;;;14.70;81.74;95141.94;5094252;28;980;-47
2022/08/02 03:59:03;;;;;;;;;;;;;;;14.76;81.38;95142.03;5094414;28;958;-47
2022/08/02 04:01:29;;;;;;;;;;;;;;;14.80;81.54;95148.72;5094487;28;1124;-47
2022/08/02 04:03:55;;;;;;;;;;;;;;;14.76;81.92;95146.56;5094490;28;952;-47
2022/08/02 04:06:21;;;;;;;;;;;;;;;14.84;81.92;95144.63;5094200;28;1024;-47
2022/08/02 04:08:47;;;;;;;;;;;;;;;15.08;80.89;95149.88;5093525;28;1913;-47
2022/08/02 04:11:32;;;;;;;;;;;;;;;15.18;80.73;95147.72;5093972;28;2077;-47
2022/08/02 04:13:59;;;;;;;;;;;;;;;15.22;80.31;95151.69;5094170;28;1038;-47
2022/08/02 04:16:30;;;;;;;;;;;;;;;15.09;81.19;95156.94;5094030;28;967;-47
2022/08/02 04:19:00;;;;;;;;;;;;;;;14.98;81.49;95159.06;5094238;28;1053;-47
2022/08/02 04:21:29;;;;;;;;;;;;;;;15.30;80.32;95158.84;5093820;28;1868;-47
2022/08/02 04:23:55;;;;;;;;;;;;;;;15.54;79.65;95160.34;5093891;28;1028;-48
2022/08/02 04:26:22;;;;;;;;;;;;;;;15.80;79.15;95157.06;5093565;28;1280;-47
2022/08/02 04:28:48;;;;;;;;;;;;;;;16.12;78.22;95155.69;5093772;28;1902;-47
2022/08/02 04:31:16;;;;;;;;;;;;;;;16.20;78.56;95165.50;5093515;28;1057;-47
2022/08/02 04:33:42;;;;;;;;;;;;;;;15.86;78.99;95171.66;5093673;28;1988;-48
2022/08/02 04:36:09;;;;;;;;;;;;;;;15.95;79.21;95173.19;5093468;28;1033;-48
2022/08/02 04:38:35;;;;;;;;;;;;;;;16.36;78.49;95159.00;5093783;28;957;-47
2022/08/02 04:41:01;;;;;;;;;;;;;;;16.62;78.75;95157.50;5093477;28;1066;-48
2022/08/02 04:43:27;;;;;;;;;;;;;;;16.72;78.29;95161.50;5100839;28;1166;-47
2022/08/02 04:45:53;;;;;;;;;;;;;;;16.94;77.69;95165.00;5113986;28;1020;-47
2022/08/02 04:48:20;;;;;;;;;;;;;;;17.09;77.31;95158.59;5113940;28;1982;-49
2022/08/02 04:50:46;;;;;;;;;;;;;;;16.98;77.29;95168.94;5113709;28;1095;-47
2022/08/02 04:53:12;;;;;;;;;;;;;;;16.95;76.30;95165.81;5113714;28;1283;-47
2022/08/02 04:55:38;;;;;;;;;;;;;;;17.28;76.18;95163.28;5113547;28;1028;-47
2022/08/02 04:58:04;;;;;;;;;;;;;;;17.63;76.36;95156.91;5113835;28;1981;-48
2022/08/02 05:00:31;;;;;;;;;;;;;;;17.75;75.36;95158.78;5113915;28;1024;-48
2022/08/02 05:02:57;;;;;;;;;;;;;;;17.91;75.58;95159.50;5113928;28;968;-48
2022/08/02 05:05:23;;;;;;;;;;;;;;;18.14;76.35;95161.78;5113627;28;1029;-47
2022/08/02 05:07:50;;;;;;;;;;;;;;;18.14;75.25;95165.31;5113687;28;1910;-47
2022/08/02 05:10:16;;;;;;;;;;;;;;;18.10;75.06;95172.19;5113515;28;1041;-48
2022/08/02 05:12:42;;;;;;;;;;;;;;;18.10;72.15;95166.78;5113806;28;1005;-47
2022/08/02 05:15:08;;;;;;;;;;;;;;;18.23;73.04;95162.41;5113541;28;913;-47
2022/08/02 05:17:34;;;;;;;;;;;;;;;18.37;71.48;95164.06;5113640;28;957;-48
2022/08/02 05:20:00;;;;;;;;;;;;;;;18.60;72.41;95168.22;5115085;28;1043;-47
2022/08/02 05:22:26;;;;;;;;;;;;;;;18.78;71.70;95170.25;5117535;28;1874;-48
2022/08/02 05:24:52;;;;;;;;;;;;;;;18.84;70.23;95167.56;5117702;28;1136;-48
2022/08/02 05:27:18;;;;;;;;;;;;;;;18.86;72.77;95167.38;5117585;28;1905;-48
2022/08/02 05:29:44;;;;;;;;;;;;;;;18.83;71.80;95173.19;5117831;28;1044;-47
2022/08/02 05:32:10;;;;;;;;;;;;;;;19.07;70.21;95171.69;5117513;28;957;-47
2022/08/02 05:34:36;;;;;;;;;;;;;;;19.12;69.34;95171.84;5117675;28;1000;-47
2022/08/02 05:37:02;;;;;;;;;;;;;;;19.44;67.51;95172.75;5117265;28;1068;-47
2022/08/02 05:39:28;;;;;;;;;;;;;;;19.86;66.35;95172.34;5117430;28;969;-48
2022/08/02 05:41:54;;;;;;;;;;;;;;;19.83;66.38;95180.94;5117477;28;1029;-48
2022/08/02 05:44:20;;;;;;;;;;;;;;;20.03;66.38;95183.53;5102723;28;1158;-48
2022/08/02 05:46:46;;;;;;;;;;;;;;;20.57;65.88;95181.25;5096747;28;1069;-47
2022/08/02 05:49:12;;;;;;;;;;;;;;;21.00;64.07;95180.41;5096861;28;1906;-48
2022/08/02 05:51:41;;;;;;;;;;;;;;;20.86;62.06;95180.53;5096921;28;1634;-48
2022/08/02 05:54:30;;;;;;;;;;;;;;;20.56;63.58;95174.94;5096653;28;1094;-48
2022/08/02 05:57:01;;;;;;;;;;;;;;;20.89;63.75;95179.28;5096664;28;1064;-48
2022/08/02 05:59:33;;;;;;;;;;;;;;;21.18;63.36;95188.56;5096840;28;966;-48
2022/08/02 06:02:03;;;;;;;;;;;;;;;21.03;63.40;95188.13;5096771;28;1025;-47
2022/08/02 06:04:36;;;;;;;;;;;;;;;20.98;62.46;95187.97;5096687;28;1200;-47
2022/08/02 06:07:05;;;;;;;;;;;;;;;20.76;62.90;95190.28;5096280;28;1938;-47
2022/08/02 06:09:31;;;;;;;;;;;;;;;20.69;63.54;95184.91;5096535;28;1855;-47
2022/08/02 06:11:58;;;;;;;;;;;;;;;20.74;64.34;95185.06;5096450;28;1042;-47
2022/08/02 06:14:25;;;;;;;;;;;;;;;20.88;62.57;95191.19;5096406;28;1032;-47
2022/08/02 06:16:51;;;;;;;;;;;;;;;20.82;63.18;95192.94;5096169;28;1991;-47
2022/08/02 06:19:18;;;;;;;;;;;;;;;20.97;64.73;95192.56;5096118;28;984;-47
2022/08/02 06:21:45;;;;;;;;;;;;;;;21.16;62.80;95198.03;5096376;28;973;-47
2022/08/02 06:24:11;;;;;;;;;;;;;;;21.26;62.10;95198.31;5096330;28;976;-47
2022/08/02 06:26:38;;;;;;;;;;;;;;;21.31;64.09;95194.94;5096155;28;1084;-48
2022/08/02 06:29:04;;;;;;;;;;;;;;;21.49;61.96;95188.66;5095921;28;1922;-49
2022/08/02 06:31:30;;;;;;;;;;;;;;;21.63;63.40;95190.19;5095235;28;1045;-47
2022/08/02 06:33:56;;;;;;;;;;;;;;;21.87;61.06;95192.97;5095931;28;1063;-48
2022/08/02 06:36:26;;;;;;;;;;;;;;;21.94;60.76;95189.09;5096299;28;1053;-48
2022/08/02 06:39:04;;;;;;;;;;;;;;;21.97;62.13;95190.56;5095978;28;1065;-48
2022/08/02 06:41:35;;;;;;;;;;;;;;;22.29;60.21;95191.16;5096117;28;1028;-48
2022/08/02 06:44:02;;;;;;;;;;;;;;;22.44;61.34;95190.69;5107723;28;1205;-48
2022/08/02 06:46:28;;;;;;;;;;;;;;;22.62;58.55;95184.31;5116465;28;1032;-48
2022/08/02 06:48:55;;;;;;;;;;;;;;;22.71;57.83;95182.91;5116222;28;1984;-49
2022/08/02 06:51:21;;;;;;;;;;;;;;;22.53;58.97;95180.28;5116272;28;1323;-48
2022/08/02 06:53:47;;;;;;;;;;;;;;;22.73;59.60;95178.06;5116231;28;941;-48
2022/08/02 06:56:13;;;;;;;;;;;;;;;22.94;58.92;95173.91;5116025;28;982;-48
2022/08/02 06:58:39;;;;;;;;;;;;;;;23.14;57.94;95173.53;5115780;28;1032;-48
2022/08/02 07:01:06;;;;;;;;;;;;;;;23.17;57.55;95177.69;5115786;28;1003;-48
2022/08/02 07:03:32;;;;;;;;;;;;;;;23.29;58.29;95177.69;5116196;28;966;-48
2022/08/02 07:05:58;;;;;;;;;;;;;;;23.53;57.91;95168.38;5116022;28;1072;-48
2022/08/02 07:08:26;;;;;;;;;;;;;;;23.59;55.35;95170.13;5115401;28;1902;-48
2022/08/02 07:10:52;;;;;;;;;;;;;;;23.76;54.71;95166.63;5115803;28;1053;-48
2022/08/02 07:13:18;;;;;;;;;;;;;;;23.88;54.95;95161.16;5115457;28;1064;-48
2022/08/02 07:15:44;;;;;;;;;;;;;;;24.04;55.05;95167.72;5115600;28;1080;-48
2022/08/02 07:18:14;;;;;;;;;;;;;;;24.07;55.49;95169.97;5115331;28;1036;-48
2022/08/02 07:20:41;;;;;;;;;;;;;;;24.27;55.89;95167.59;5115740;28;997;-48
2022/08/02 07:23:07;;;;;;;;;;;;;;;24.26;54.35;95163.19;5115344;28;1200;-48
2022/08/02 07:25:33;;;;;;;;;;;;;;;24.34;52.45;95159.25;5115411;28;1096;-48
2022/08/02 07:27:59;;;;;;;;;;;;;;;24.35;52.62;95167.19;5115123;28;1914;-48
2022/08/02 07:30:25;;;;;;;;;;;;;;;24.45;54.19;95158.31;5115238;28;1048;-48
2022/08/02 07:32:51;;;;;;;;;;;;;;;24.47;55.10;95156.19;5115363;28;986;-48
2022/08/02 07:35:17;;;;;;;;;;;;;;;24.56;55.25;95159.34;5115222;28;962;-48
2022/08/02 07:37:45;;;;;;;;;;;;;;;24.61;54.82;95153.97;5115121;28;1021;-48
2022/08/02 07:40:11;;;;;;;;;;;;;;;24.70;54.59;95146.16;5115001;28;1024;-48
2022/08/02 07:42:37;;;;;;;;;;;;;;;24.94;54.73;95146.81;5114850;28;1150;-48
2022/08/02 07:45:03;;;;;;;;;;;;;;;25.13;53.96;95153.63;5094399;28;1048;-48
2022/08/02 07:47:29;;;;;;;;;;;;;;;25.23;54.17;95154.88;5094827;28;1909;-48
2022/08/02 07:49:55;;;;;;;;;;;;;;;25.34;52.68;95151.22;5094386;28;902;-48
2022/08/02 07:52:21;;;;;;;;;;;;;;;25.48;53.38;95154.41;5094403;28;1625;-48
2022/08/02 07:54:47;;;;;;;;;;;;;;;25.44;51.72;95153.25;5094337;28;1860;-48
2022/08/02 07:57:13;;;;;;;;;;;;;;;25.42;51.74;95155.41;5094401;28;1076;-49
2022/08/02 07:59:39;;;;;;;;;;;;;;;25.43;51.69;95149.69;5094173;28;1011;-48
2022/08/02 08:02:05;;;;;;;;;;;;;;;25.56;49.53;95147.66;5094442;28;998;-48
2022/08/02 08:04:31;;;;;;;;;;;;;;;25.61;50.46;95144.97;5094304;28;955;-48
2022/08/02 08:06:58;;;;;;;;;;;;;;;25.71;50.99;95142.38;5094166;28;1910;-48
2022/08/02 08:09:24;;;;;;;;;;;;;;;25.84;50.52;95133.75;5093941;28;980;-49
2022/08/02 08:11:50;;;;;;;;;;;;;;;25.89;49.24;95130.22;5094170;28;1099;-48
2022/08/02 08:14:16;;;;;;;;;;;;;;;25.96;49.57;95130.88;5093809;28;1032;-48
2022/08/02 08:16:42;;;;;;;;;;;;;;;26.15;48.80;95133.25;5094353;28;962;-49
2022/08/02 08:19:08;;;;;;;;;;;;;;;26.30;47.90;95139.69;5094016;28;1052;-48
2022/08/02 08:21:34;;;;;;;;;;;;;;;26.33;46.96;95135.59;5094190;28;1015;-49
2022/08/02 08:24:00;;;;;;;;;;;;;;;26.34;47.86;95133.69;5093896;28;1027;-49
2022/08/02 08:26:26;;;;;;;;;;;;;;;26.43;46.42;95122.00;5093936;28;1016;-49
2022/08/02 08:28:52;;;;;;;;;;;;;;;26.55;46.80;95131.94;5093652;28;1906;-48
2022/08/02 08:31:18;;;;;;;;;;;;;;;26.74;48.19;95132.41;5093742;28;1045;-49
2022/08/02 08:33:44;;;;;;;;;;;;;;;26.83;48.48;95131.63;5093907;28;1024;-48
2022/08/02 08:36:10;;;;;;;;;;;;;;;26.84;45.04;95130.56;5093847;28;1039;-49
2022/08/02 08:38:36;;;;;;;;;;;;;;;26.74;45.33;95124.16;5093762;28;1064;-49
2022/08/02 08:41:02;;;;;;;;;;;;;;;26.77;47.03;95121.72;5093555;28;1005;-49
2022/08/02 08:43:28;;;;;;;;;;;;;;;27.00;46.68;95125.16;5100927;28;1158;-49
2022/08/02 08:45:54;;;;;;;;;;;;;;;27.14;44.59;95129.06;5114095;28;1049;-49
2022/08/02 08:48:21;;;;;;;;;;;;;;;27.11;45.66;95129.63;5114028;28;2002;-49
2022/08/02 08:51:00;;;;;;;;;;;;;;;27.07;45.72;95118.34;5113903;28;1060;-49
2022/08/02 08:53:28;;;;;;;;;;;;;;;27.12;45.79;95125.78;5113795;28;1161;-48
2022/08/02 08:55:56;;;;;;;;;;;;;;;27.16;44.75;95132.38;5113175;28;1207;-47
2022/08/02 08:58:23;;;;;;;;;;;;;;;27.25;44.54;95130.81;5114292;28;1017;-48
2022/08/02 09:00:49;;;;;;;;;;;;;;;27.13;43.58;95121.09;5113866;28;1019;-49
2022/08/02 09:03:15;;;;;;;;;;;;;;;27.18;45.68;95129.38;5113708;28;1092;-49
2022/08/02 09:05:42;;;;;;;;;;;;;;;27.35;43.95;95134.72;5113716;28;1031;-49
2022/08/02 09:08:08;;;;;;;;;;;;;;;27.44;44.09;95117.44;5113592;28;1987;-49
2022/08/02 09:10:40;;;;;;;;;;;;;;;27.49;43.00;95115.81;5113567;28;1059;-49
2022/08/02 09:13:11;;;;;;;;;;;;;;;27.40;44.73;95127.31;5113601;28;1977;-49
2022/08/02 09:15:38;;;;;;;;;;;;;;;27.44;42.95;95131.19;5113714;28;1015;-48
2022/08/02 09:18:05;;;;;;;;;;;;;;;27.43;41.74;95125.94;5113717;28;1028;-49
2022/08/02 09:20:32;;;;;;;;;;;;;;;27.42;43.95;95127.06;5113552;28;1048;-48
2022/08/02 09:23:05;;;;;;;;;;;;;;;27.41;43.42;95122.66;5113575;28;938;-48
2022/08/02 09:25:31;;;;;;;;;;;;;;;27.44;43.63;95120.19;5113376;28;996;-49
2022/08/02 09:27:58;;;;;;;;;;;;;;;27.44;42.62;95119.38;5113676;28;1917;-48
2022/08/02 09:30:25;;;;;;;;;;;;;;;27.46;45.39;95112.50;5113440;28;1031;-48
2022/08/02 09:32:51;;;;;;;;;;;;;;;27.52;44.35;95118.84;5113648;28;960;-49
2022/08/02 09:35:34;;;;;;;;;;;;;;;27.53;44.76;95115.03;5113317;28;980;-48
2022/08/02 09:38:13;;;;;;;;;;;;;;;27.58;44.80;95111.47;5113459;28;1008;-48
2022/08/02 09:40:40;;;;;;;;;;;;;;;27.68;43.75;95117.00;5113378;28;980;-49
2022/08/02 09:43:06;;;;;;;;;;;;;;;27.67;42.16;95107.09;5109031;28;1153;-48
2022/08/02 09:45:33;;;;;;;;;;;;;;;27.58;45.24;95109.53;5093053;28;1025;-49
2022/08/02 09:48:00;;;;;;;;;;;;;;;27.71;44.25;95110.94;5092943;28;1996;-49
2022/08/02 09:50:26;;;;;;;;;;;;;;;27.75;45.15;95109.31;5092673;28;1530;-49
2022/08/02 09:52:54;;;;;;;;;;;;;;;27.71;43.46;95112.88;5092945;28;1165;-49
2022/08/02 09:55:20;;;;;;;;;;;;;;;27.74;42.75;95104.13;5092599;28;918;-49
2022/08/02 09:57:46;;;;;;;;;;;;;;;27.71;43.26;95102.72;5093054;28;1020;-49
2022/08/02 10:00:12;;;;;;;;;;;;;;;27.74;44.92;95101.38;5092865;28;1053;-49
2022/08/02 10:02:38;;;;;;;;;;;;;;;27.71;43.18;95102.72;5092793;28;1033;-49
2022/08/02 10:05:05;;;;;;;;;;;;;;;27.70;43.31;95097.47;5092684;28;1076;-49
2022/08/02 10:07:31;;;;;;;;;;;;;;;27.65;44.63;95109.28;5094861;28;1913;-49
2022/08/02 10:09:57;;;;;;;;;;;;;;;27.68;44.97;95100.53;5096733;28;972;-49
2022/08/02 10:12:23;;;;;;;;;;;;;;;27.70;44.61;95106.56;5078421;28;1031;-48
2022/08/02 10:14:50;;;;;;;;;;;;;;;27.77;44.48;95098.06;5096415;28;1199;-49
2022/08/02 10:17:18;;;;;;;;;;;;;;;27.82;43.82;95103.56;5096198;28;1063;-49
2022/08/02 10:19:44;;;;;;;;;;;;;;;27.80;43.63;95098.34;5096237;28;1001;-49
2022/08/02 10:22:12;;;;;;;;;;;;;;;27.75;43.22;95101.06;5096101;28;1234;-49
2022/08/02 10:24:38;;;;;;;;;;;;;;;27.49;38.72;95085.63;5096413;28;992;-49
2022/08/02 10:27:15;;;;;;;;;;;;;;;27.49;43.70;95086.47;5096055;28;1913;-48
2022/08/02 10:29:42;;;;;;;;;;;;;;;27.72;43.97;95098.06;5096302;28;1040;-49
2022/08/02 10:32:09;;;;;;;;;;;;;;;27.80;43.09;95086.53;5095762;28;977;-49
2022/08/02 10:34:39;;;;;;;;;;;;;;;27.89;42.42;95084.94;5096032;28;1087;-49
2022/08/02 10:37:07;;;;;;;;;;;;;;;27.96;43.82;95082.72;5095944;28;1032;-48
2022/08/02 10:39:40;;;;;;;;;;;;;;;28.06;43.62;95090.19;5096150;28;988;-49
2022/08/02 10:42:07;;;;;;;;;;;;;;;28.01;42.79;95080.00;5095644;28;1021;-49
2022/08/02 10:44:33;;;;;;;;;;;;;;;28.02;43.40;95078.06;5112294;28;1220;-49
2022/08/02 10:47:17;;;;;;;;;;;;;;;28.01;43.61;95081.94;5116047;28;1037;-49
2022/08/02 10:49:54;;;;;;;;;;;;;;;27.98;44.10;95079.72;5116364;28;982;-49
2022/08/02 10:52:24;;;;;;;;;;;;;;;28.07;42.73;95080.84;5115806;28;1087;-48
2022/08/02 10:54:54;;;;;;;;;;;;;;;28.11;43.25;95081.13;5116199;28;973;-49
2022/08/02 10:57:25;;;;;;;;;;;;;;;28.14;43.71;95086.06;5115713;28;1040;-49
2022/08/02 10:59:53;;;;;;;;;;;;;;;28.16;43.19;95095.69;5116204;28;1044;-48
2022/08/02 11:02:38;;;;;;;;;;;;;;;28.22;42.52;95082.78;5115825;28;1097;-49
2022/08/02 11:05:07;;;;;;;;;;;;;;;28.25;41.96;95082.25;5115800;28;1044;-49
2022/08/02 11:07:37;;;;;;;;;;;;;;;28.27;41.37;95080.03;5115502;28;1901;-48
2022/08/02 11:10:22;;;;;;;;;;;;;;;28.32;42.03;95081.94;5115728;28;960;-49
2022/08/02 11:12:57;;;;;;;;;;;;;;;28.44;41.62;95077.00;5115704;28;992;-49
2022/08/02 11:15:23;;;;;;;;;;;;;;;28.39;41.04;95080.56;5115558;28;1036;-49
2022/08/02 11:18:00;;;;;;;;;;;;;;;28.42;42.34;95076.47;5115192;28;1041;-49
2022/08/02 11:20:26;;;;;;;;;;;;;;;28.38;41.83;95076.19;5115497;28;1032;-49
2022/08/02 11:22:53;;;;;;;;;;;;;;;28.45;41.02;95067.66;5115565;28;968;-49
2022/08/02 11:25:22;;;;;;;;;;;;;;;28.47;41.58;95070.94;5115385;28;1096;-49
2022/08/02 11:27:48;;;;;;;;;;;;;;;28.51;42.09;95058.28;5115356;28;1985;-49
2022/08/02 11:30:15;;;;;;;;;;;;;;;28.36;41.80;95078.41;5115426;28;977;-49
2022/08/02 11:32:41;;;;;;;;;;;;;;;28.12;40.16;95067.09;5097052;28;973;-49
2022/08/02 11:35:07;;;;;;;;;;;;;;;27.78;43.60;95053.84;5115163;28;1024;-49
2022/08/02 11:37:35;;;;;;;;;;;;;;;27.42;43.07;95061.19;5115067;28;1032;-48
2022/08/02 11:40:02;;;;;;;;;;;;;;;27.20;42.75;95061.31;5115147;28;1004;-49
2022/08/02 11:42:36;;;;;;;;;;;;;;;27.14;43.70;95062.41;5096855;28;1021;-49
2022/08/02 11:45:03;;;;;;;;;;;;;;;27.39;43.15;95061.69;5094761;28;957;-49
2022/08/02 11:47:30;;;;;;;;;;;;;;;27.38;42.32;95068.31;5094379;28;1905;-49
2022/08/02 11:50:03;;;;;;;;;;;;;;;27.45;42.64;95064.22;5094621;28;1080;-49
2022/08/02 11:52:33;;;;;;;;;;;;;;;27.68;42.16;95064.81;5094530;28;1250;-48
2022/08/02 11:54:59;;;;;;;;;;;;;;;27.84;41.08;95062.91;5094486;28;1020;-49
2022/08/02 11:57:25;;;;;;;;;;;;;;;27.94;41.40;95071.19;5094229;28;1093;-49
2022/08/02 11:59:52;;;;;;;;;;;;;;;28.04;41.71;95064.91;5094431;28;1011;-49
2022/08/02 12:02:19;;;;;;;;;;;;;;;27.83;40.92;95064.00;5094138;28;1947;-49
2022/08/02 12:04:52;;;;;;;;;;;;;;;27.51;42.66;95065.06;5094521;28;953;-49
2022/08/02 12:07:24;;;;;;;;;;;;;;;27.29;42.88;95062.50;5094228;28;1929;-49
2022/08/02 12:09:50;;;;;;;;;;;;;;;27.18;42.82;95064.31;5076353;28;1020;-48
2022/08/02 12:12:16;;;;;;;;;;;;;;;27.15;42.86;95062.13;5094122;28;1051;-49
2022/08/02 12:14:45;;;;;;;;;;;;;;;27.40;42.46;95066.09;5093881;28;1045;-49
2022/08/02 12:19:56;;;;;;;;;;;;;;;27.96;42.21;95070.94;5094171;28;978;-49
2022/08/02 12:22:24;;;;;;;;;;;;;;;28.17;42.24;95069.88;5094072;28;1029;-49
2022/08/02 12:24:51;;;;;;;;;;;;;;;28.31;41.50;95063.81;5093800;28;1886;-49
2022/08/02 12:27:36;;;;;;;;;;;;;;;28.34;41.00;95074.25;5093709;28;1984;-49
2022/08/02 12:30:02;;;;;;;;;;;;;;;28.38;41.23;95070.69;5093211;28;957;-49
2022/08/02 12:32:29;;;;;;;;;;;;;;;28.29;39.96;95069.59;5093847;28;1311;-49
2022/08/02 12:35:04;;;;;;;;;;;;;;;28.29;41.85;95071.53;5093787;28;981;-49
2022/08/02 12:37:30;;;;;;;;;;;;;;;28.29;40.22;95068.78;5093744;28;946;-49
2022/08/02 12:39:56;;;;;;;;;;;;;;;28.31;40.44;95061.88;5093850;28;1069;-49
2022/08/02 12:53:32;;;;;;;;;;;;;;;27.68;42.64;95056.59;4749124;27;1464662;-49
2022/08/02 12:56:00;;;;;;;;;;;;;;;27.90;43.53;95063.78;5131741;28;1041;-49
2022/08/02 12:58:26;;;;;;;;;;;;;;;28.03;42.06;95064.06;5131284;28;1040;-49
2022/08/02 13:00:53;;;;;;;;;;;;;;;28.16;42.46;95059.97;5131490;28;1178;-49
2022/08/02 13:03:19;;;;;;;;;;;;;;;28.23;41.65;95062.44;5131658;28;945;-49
2022/08/02 13:05:45;;;;;;;;;;;;;;;28.18;40.97;95060.50;5131217;28;1048;-49
2022/08/02 13:08:11;;;;;;;;;;;;;;;28.21;41.48;95059.97;5131068;28;1992;-49
2022/08/02 13:10:37;;;;;;;;;;;;;;;28.20;40.45;95061.06;5131277;28;986;-49
2022/08/02 13:13:03;;;;;;;;;;;;;;;28.29;41.60;95055.84;5131164;28;949;-49
2022/08/02 13:15:30;;;;;;;;;;;;;;;28.39;41.90;95055.00;5131018;28;1025;-49